sensor_id;sensor_type;location;lat;lon;timestamp;temperature;humidity
8957;DHT22;4513;50.054;8.230;2022-10-26T00:01:06;11.80;99.90
8957;DHT22;4513;50.054;8.230;2022-10-26T00:03:33;11.80;99.90
8957;DHT22;4513;50.054;8.230;2022-10-26T00:06:03;11.90;99.90
8957;DHT22;4513;50.054;8.230;2022-10-26T00:08:30;11.90;99.90
8957;DHT22;4513;50.054;8.230;2022-10-26T00:10:58;11.90;99.90
8957;DHT22;4513;50.054;8.230;2022-10-26T00:13:25;12.00;99.90
8957;DHT22;4513;50.054;8.230;2022-10-26T00:15:52;12.00;99.90
8957;DHT22;4513;50.054;8.230;2022-10-26T00:18:18;11.90;99.90
8957;DHT22;4513;50.054;8.230;2022-10-26T00:20:45;12.00;99.90
8957;DHT22;4513;50.054;8.230;2022-10-26T00:23:12;11.90;99.90
8957;DHT22;4513;50.054;8.230;2022-10-26T00:25:38;12.00;99.90
8957;DHT22;4513;50.054;8.230;2022-10-26T00:28:07;12.00;99.90
8957;DHT22;4513;50.054;8.230;2022-10-26T00:30:33;12.00;99.90
8957;DHT22;4513;50.054;8.230;2022-10-26T00:33:00;12.00;99.90
8957;DHT22;4513;50.054;8.230;2022-10-26T00:35:27;12.00;99.90
8957;DHT22;4513;50.054;8.230;2022-10-26T00:37:53;12.00;99.90
8957;DHT22;4513;50.054;8.230;2022-10-26T00:40:20;11.90;99.90
8957;DHT22;4513;50.054;8.230;2022-10-26T00:42:47;11.90;99.90
8957;DHT22;4513;50.054;8.230;2022-10-26T00:45:21;11.90;99.90
8957;DHT22;4513;50.054;8.230;2022-10-26T00:47:49;12.00;99.90
8957;DHT22;4513;50.054;8.230;2022-10-26T00:50:17;12.00;99.90
8957;DHT22;4513;50.054;8.230;2022-10-26T00:52:44;12.00;99.90
8957;DHT22;4513;50.054;8.230;2022-10-26T00:55:11;12.10;99.90
8957;DHT22;4513;50.054;8.230;2022-10-26T00:57:38;12.10;99.90
8957;DHT22;4513;50.054;8.230;2022-10-26T01:00:06;12.10;99.90
8957;DHT22;4513;50.054;8.230;2022-10-26T01:02:37;12.10;99.90
8957;DHT22;4513;50.054;8.230;2022-10-26T01:05:05;12.10;99.90
8957;DHT22;4513;50.054;8.230;2022-10-26T01:07:31;12.10;99.90
8957;DHT22;4513;50.054;8.230;2022-10-26T01:09:58;12.20;99.90
8957;DHT22;4513;50.054;8.230;2022-10-26T01:12:26;12.30;99.90
8957;DHT22;4513;50.054;8.230;2022-10-26T01:14:52;12.30;99.90
8957;DHT22;4513;50.054;8.230;2022-10-26T01:17:32;12.20;99.90
8957;DHT22;4513;50.054;8.230;2022-10-26T01:20:14;12.20;99.90
8957;DHT22;4513;50.054;8.230;2022-10-26T01:22:45;12.20;99.90
8957;DHT22;4513;50.054;8.230;2022-10-26T01:25:15;12.10;99.90
8957;DHT22;4513;50.054;8.230;2022-10-26T01:27:50;12.20;99.90
8957;DHT22;4513;50.054;8.230;2022-10-26T01:30:20;12.20;99.90
8957;DHT22;4513;50.054;8.230;2022-10-26T01:33:00;12.10;99.90
8957;DHT22;4513;50.054;8.230;2022-10-26T01:35:31;12.00;99.90
8957;DHT22;4513;50.054;8.230;2022-10-26T01:38:00;12.00;99.90
8957;DHT22;4513;50.054;8.230;2022-10-26T01:40:30;12.10;99.90
8957;DHT22;4513;50.054;8.230;2022-10-26T01:42:58;12.10;99.90
8957;DHT22;4513;50.054;8.230;2022-10-26T01:45:29;12.20;99.90
8957;DHT22;4513;50.054;8.230;2022-10-26T01:47:57;12.10;99.90
8957;DHT22;4513;50.054;8.230;2022-10-26T01:50:24;12.10;99.90
8957;DHT22;4513;50.054;8.230;2022-10-26T01:52:52;12.20;99.90
8957;DHT22;4513;50.054;8.230;2022-10-26T01:55:37;12.30;99.90
8957;DHT22;4513;50.054;8.230;2022-10-26T01:58:06;12.30;99.90
8957;DHT22;4513;50.054;8.230;2022-10-26T02:00:37;12.30;99.90
8957;DHT22;4513;50.054;8.230;2022-10-26T02:03:08;12.30;99.90
8957;DHT22;4513;50.054;8.230;2022-10-26T02:05:44;12.40;99.90
8957;DHT22;4513;50.054;8.230;2022-10-26T02:08:15;12.40;99.90
8957;DHT22;4513;50.054;8.230;2022-10-26T02:10:47;12.40;99.90
8957;DHT22;4513;50.054;8.230;2022-10-26T02:13:15;12.50;99.90
8957;DHT22;4513;50.054;8.230;2022-10-26T02:15:46;12.50;99.90
8957;DHT22;4513;50.054;8.230;2022-10-26T02:18:15;12.50;99.90
8957;DHT22;4513;50.054;8.230;2022-10-26T02:20:48;12.40;99.90
8957;DHT22;4513;50.054;8.230;2022-10-26T02:23:16;12.50;99.90
8957;DHT22;4513;50.054;8.230;2022-10-26T02:25:44;12.40;99.90
8957;DHT22;4513;50.054;8.230;2022-10-26T02:28:14;12.40;99.90
8957;DHT22;4513;50.054;8.230;2022-10-26T02:30:42;12.40;99.90
8957;DHT22;4513;50.054;8.230;2022-10-26T02:33:13;12.40;99.90
8957;DHT22;4513;50.054;8.230;2022-10-26T02:35:40;12.30;99.90
8957;DHT22;4513;50.054;8.230;2022-10-26T02:38:09;12.40;99.90
8957;DHT22;4513;50.054;8.230;2022-10-26T02:40:36;12.40;99.90
8957;DHT22;4513;50.054;8.230;2022-10-26T02:43:04;12.30;99.90
8957;DHT22;4513;50.054;8.230;2022-10-26T02:45:33;12.40;99.90
8957;DHT22;4513;50.054;8.230;2022-10-26T02:48:02;12.40;99.90
8957;DHT22;4513;50.054;8.230;2022-10-26T02:50:32;12.50;99.90
8957;DHT22;4513;50.054;8.230;2022-10-26T02:53:01;12.40;99.90
8957;DHT22;4513;50.054;8.230;2022-10-26T02:55:33;12.50;99.90
8957;DHT22;4513;50.054;8.230;2022-10-26T02:58:01;12.50;99.90
8957;DHT22;4513;50.054;8.230;2022-10-26T03:00:28;12.40;99.90
8957;DHT22;4513;50.054;8.230;2022-10-26T03:02:56;12.40;99.90
8957;DHT22;4513;50.054;8.230;2022-10-26T03:05:24;12.40;99.90
8957;DHT22;4513;50.054;8.230;2022-10-26T03:07:53;12.50;99.90
8957;DHT22;4513;50.054;8.230;2022-10-26T03:10:20;12.50;99.90
8957;DHT22;4513;50.054;8.230;2022-10-26T03:12:46;12.50;99.90
8957;DHT22;4513;50.054;8.230;2022-10-26T03:15:13;12.50;99.90
8957;DHT22;4513;50.054;8.230;2022-10-26T03:17:40;12.50;99.90
8957;DHT22;4513;50.054;8.230;2022-10-26T03:20:07;12.50;99.90
8957;DHT22;4513;50.054;8.230;2022-10-26T03:22:34;12.40;99.90
8957;DHT22;4513;50.054;8.230;2022-10-26T03:25:02;12.40;99.90
8957;DHT22;4513;50.054;8.230;2022-10-26T03:27:29;12.40;99.90
8957;DHT22;4513;50.054;8.230;2022-10-26T03:29:56;12.50;99.90
8957;DHT22;4513;50.054;8.230;2022-10-26T03:32:22;12.50;99.90
8957;DHT22;4513;50.054;8.230;2022-10-26T03:34:49;12.50;99.90
8957;DHT22;4513;50.054;8.230;2022-10-26T03:37:16;12.50;99.90
8957;DHT22;4513;50.054;8.230;2022-10-26T03:39:42;12.40;99.90
8957;DHT22;4513;50.054;8.230;2022-10-26T03:42:11;12.50;99.90
8957;DHT22;4513;50.054;8.230;2022-10-26T03:44:38;12.50;99.90
8957;DHT22;4513;50.054;8.230;2022-10-26T03:47:04;12.50;99.90
8957;DHT22;4513;50.054;8.230;2022-10-26T03:49:31;12.50;99.90
8957;DHT22;4513;50.054;8.230;2022-10-26T03:51:57;12.50;99.90
8957;DHT22;4513;50.054;8.230;2022-10-26T03:54:24;12.50;99.90
8957;DHT22;4513;50.054;8.230;2022-10-26T03:56:51;12.60;99.90
8957;DHT22;4513;50.054;8.230;2022-10-26T03:59:19;12.60;99.90
8957;DHT22;4513;50.054;8.230;2022-10-26T04:01:45;12.50;99.90
8957;DHT22;4513;50.054;8.230;2022-10-26T04:04:12;12.40;99.90
8957;DHT22;4513;50.054;8.230;2022-10-26T04:06:39;12.40;99.90
8957;DHT22;4513;50.054;8.230;2022-10-26T04:09:05;12.40;99.90
8957;DHT22;4513;50.054;8.230;2022-10-26T04:11:32;12.30;99.90
8957;DHT22;4513;50.054;8.230;2022-10-26T04:13:59;12.40;99.90
8957;DHT22;4513;50.054;8.230;2022-10-26T04:16:27;12.40;99.90
8957;DHT22;4513;50.054;8.230;2022-10-26T04:18:53;12.40;99.90
8957;DHT22;4513;50.054;8.230;2022-10-26T04:21:20;12.50;99.90
8957;DHT22;4513;50.054;8.230;2022-10-26T04:23:47;12.40;99.90
8957;DHT22;4513;50.054;8.230;2022-10-26T04:26:13;12.40;99.90
8957;DHT22;4513;50.054;8.230;2022-10-26T04:28:40;12.40;99.90
8957;DHT22;4513;50.054;8.230;2022-10-26T04:31:07;12.40;99.90
8957;DHT22;4513;50.054;8.230;2022-10-26T04:33:35;12.30;99.90
8957;DHT22;4513;50.054;8.230;2022-10-26T04:36:04;12.40;99.90
8957;DHT22;4513;50.054;8.230;2022-10-26T04:38:31;12.30;99.90
8957;DHT22;4513;50.054;8.230;2022-10-26T04:40:57;12.40;99.90
8957;DHT22;4513;50.054;8.230;2022-10-26T04:43:24;12.30;99.90
8957;DHT22;4513;50.054;8.230;2022-10-26T04:45:53;12.30;99.90
8957;DHT22;4513;50.054;8.230;2022-10-26T04:48:19;12.30;99.90
8957;DHT22;4513;50.054;8.230;2022-10-26T04:50:47;12.30;99.90
8957;DHT22;4513;50.054;8.230;2022-10-26T04:53:14;12.30;99.90
8957;DHT22;4513;50.054;8.230;2022-10-26T04:55:41;12.30;99.90
8957;DHT22;4513;50.054;8.230;2022-10-26T04:58:07;12.30;99.90
8957;DHT22;4513;50.054;8.230;2022-10-26T05:00:34;12.20;99.90
8957;DHT22;4513;50.054;8.230;2022-10-26T05:03:01;12.20;99.90
8957;DHT22;4513;50.054;8.230;2022-10-26T05:05:29;12.20;99.90
8957;DHT22;4513;50.054;8.230;2022-10-26T05:07:57;12.20;99.90
8957;DHT22;4513;50.054;8.230;2022-10-26T05:10:24;12.20;99.90
8957;DHT22;4513;50.054;8.230;2022-10-26T05:12:51;12.20;99.90
8957;DHT22;4513;50.054;8.230;2022-10-26T05:15:18;12.20;99.90
8957;DHT22;4513;50.054;8.230;2022-10-26T05:17:45;12.20;99.90
8957;DHT22;4513;50.054;8.230;2022-10-26T05:20:13;12.20;99.90
8957;DHT22;4513;50.054;8.230;2022-10-26T05:22:42;12.20;99.90
8957;DHT22;4513;50.054;8.230;2022-10-26T05:25:10;12.30;99.90
8957;DHT22;4513;50.054;8.230;2022-10-26T05:27:37;12.30;99.90
8957;DHT22;4513;50.054;8.230;2022-10-26T05:30:03;12.30;99.90
8957;DHT22;4513;50.054;8.230;2022-10-26T05:32:30;12.30;99.90
8957;DHT22;4513;50.054;8.230;2022-10-26T05:34:57;12.30;99.90
8957;DHT22;4513;50.054;8.230;2022-10-26T05:37:23;12.30;99.90
8957;DHT22;4513;50.054;8.230;2022-10-26T05:39:53;12.30;99.90
8957;DHT22;4513;50.054;8.230;2022-10-26T05:42:21;12.40;99.90
8957;DHT22;4513;50.054;8.230;2022-10-26T05:44:49;12.40;99.90
8957;DHT22;4513;50.054;8.230;2022-10-26T05:47:16;12.40;99.90
8957;DHT22;4513;50.054;8.230;2022-10-26T05:49:43;12.40;99.90
8957;DHT22;4513;50.054;8.230;2022-10-26T05:52:09;12.40;99.90
8957;DHT22;4513;50.054;8.230;2022-10-26T05:54:36;12.30;99.90
8957;DHT22;4513;50.054;8.230;2022-10-26T05:57:03;12.40;99.90
8957;DHT22;4513;50.054;8.230;2022-10-26T05:59:31;12.40;99.90
8957;DHT22;4513;50.054;8.230;2022-10-26T06:02:01;12.40;99.90
8957;DHT22;4513;50.054;8.230;2022-10-26T06:04:30;12.50;99.90
8957;DHT22;4513;50.054;8.230;2022-10-26T06:06:57;12.40;99.90
8957;DHT22;4513;50.054;8.230;2022-10-26T06:09:24;12.40;99.90
8957;DHT22;4513;50.054;8.230;2022-10-26T06:11:51;12.50;99.90
8957;DHT22;4513;50.054;8.230;2022-10-26T06:14:18;12.40;99.90
8957;DHT22;4513;50.054;8.230;2022-10-26T06:16:49;12.30;99.90
8957;DHT22;4513;50.054;8.230;2022-10-26T06:19:23;12.40;99.90
8957;DHT22;4513;50.054;8.230;2022-10-26T06:21:55;12.40;99.90
8957;DHT22;4513;50.054;8.230;2022-10-26T06:24:28;12.40;99.90
8957;DHT22;4513;50.054;8.230;2022-10-26T06:27:01;12.40;99.90
8957;DHT22;4513;50.054;8.230;2022-10-26T06:29:32;12.40;99.90
8957;DHT22;4513;50.054;8.230;2022-10-26T06:32:02;12.50;99.90
8957;DHT22;4513;50.054;8.230;2022-10-26T06:34:34;12.50;99.90
8957;DHT22;4513;50.054;8.230;2022-10-26T06:37:01;12.60;99.90
8957;DHT22;4513;50.054;8.230;2022-10-26T06:39:30;12.60;99.90
8957;DHT22;4513;50.054;8.230;2022-10-26T06:41:57;12.70;99.90
8957;DHT22;4513;50.054;8.230;2022-10-26T06:44:24;12.70;99.90
8957;DHT22;4513;50.054;8.230;2022-10-26T06:46:52;12.60;99.90
8957;DHT22;4513;50.054;8.230;2022-10-26T06:49:24;12.60;99.90
8957;DHT22;4513;50.054;8.230;2022-10-26T06:51:55;12.50;99.90
8957;DHT22;4513;50.054;8.230;2022-10-26T06:54:22;12.60;99.90
8957;DHT22;4513;50.054;8.230;2022-10-26T06:56:51;12.60;99.90
8957;DHT22;4513;50.054;8.230;2022-10-26T06:59:21;12.70;99.90
8957;DHT22;4513;50.054;8.230;2022-10-26T07:01:52;12.70;99.90
8957;DHT22;4513;50.054;8.230;2022-10-26T07:04:19;12.80;99.90
8957;DHT22;4513;50.054;8.230;2022-10-26T07:06:47;12.80;99.90
8957;DHT22;4513;50.054;8.230;2022-10-26T07:09:13;12.80;99.90
8957;DHT22;4513;50.054;8.230;2022-10-26T07:11:40;12.80;99.90
8957;DHT22;4513;50.054;8.230;2022-10-26T07:14:07;12.90;99.90
8957;DHT22;4513;50.054;8.230;2022-10-26T07:16:33;13.00;99.90
8957;DHT22;4513;50.054;8.230;2022-10-26T07:19:00;13.10;99.90
8957;DHT22;4513;50.054;8.230;2022-10-26T07:21:27;13.20;99.90
8957;DHT22;4513;50.054;8.230;2022-10-26T07:23:55;13.20;99.90
8957;DHT22;4513;50.054;8.230;2022-10-26T07:26:22;13.20;99.90
8957;DHT22;4513;50.054;8.230;2022-10-26T07:28:49;13.40;99.90
8957;DHT22;4513;50.054;8.230;2022-10-26T07:31:18;13.50;99.90
8957;DHT22;4513;50.054;8.230;2022-10-26T07:33:45;13.50;99.90
8957;DHT22;4513;50.054;8.230;2022-10-26T07:36:12;13.60;99.90
8957;DHT22;4513;50.054;8.230;2022-10-26T07:38:38;13.60;99.90
8957;DHT22;4513;50.054;8.230;2022-10-26T07:41:06;13.70;99.90
8957;DHT22;4513;50.054;8.230;2022-10-26T07:43:33;13.80;99.90
8957;DHT22;4513;50.054;8.230;2022-10-26T07:45:59;13.80;99.90
8957;DHT22;4513;50.054;8.230;2022-10-26T07:48:26;13.90;99.90
8957;DHT22;4513;50.054;8.230;2022-10-26T07:50:53;14.00;99.90
8957;DHT22;4513;50.054;8.230;2022-10-26T07:53:19;13.90;99.90
8957;DHT22;4513;50.054;8.230;2022-10-26T07:55:51;13.90;99.90
8957;DHT22;4513;50.054;8.230;2022-10-26T07:58:19;14.10;99.90
8957;DHT22;4513;50.054;8.230;2022-10-26T08:00:47;14.20;99.90
8957;DHT22;4513;50.054;8.230;2022-10-26T08:03:14;14.40;99.90
8957;DHT22;4513;50.054;8.230;2022-10-26T08:05:41;14.50;99.90
8957;DHT22;4513;50.054;8.230;2022-10-26T08:08:07;14.50;99.90
8957;DHT22;4513;50.054;8.230;2022-10-26T08:10:34;14.60;99.90
8957;DHT22;4513;50.054;8.230;2022-10-26T08:13:01;14.60;99.90
8957;DHT22;4513;50.054;8.230;2022-10-26T08:15:29;14.70;99.90
8957;DHT22;4513;50.054;8.230;2022-10-26T08:17:55;14.70;99.90
8957;DHT22;4513;50.054;8.230;2022-10-26T08:20:22;14.90;99.90
8957;DHT22;4513;50.054;8.230;2022-10-26T08:22:49;14.90;99.90
8957;DHT22;4513;50.054;8.230;2022-10-26T08:25:17;14.90;99.90
8957;DHT22;4513;50.054;8.230;2022-10-26T08:27:43;14.90;99.90
8957;DHT22;4513;50.054;8.230;2022-10-26T08:30:10;15.00;99.90
8957;DHT22;4513;50.054;8.230;2022-10-26T08:32:39;15.10;99.90
8957;DHT22;4513;50.054;8.230;2022-10-26T08:35:07;15.00;99.90
8957;DHT22;4513;50.054;8.230;2022-10-26T08:37:33;15.10;99.90
8957;DHT22;4513;50.054;8.230;2022-10-26T08:40:00;15.10;99.90
8957;DHT22;4513;50.054;8.230;2022-10-26T08:42:28;15.20;99.90
8957;DHT22;4513;50.054;8.230;2022-10-26T08:44:58;15.20;99.90
8957;DHT22;4513;50.054;8.230;2022-10-26T08:47:27;15.20;99.90
8957;DHT22;4513;50.054;8.230;2022-10-26T08:49:58;15.10;99.90
8957;DHT22;4513;50.054;8.230;2022-10-26T08:52:28;14.90;99.90
8957;DHT22;4513;50.054;8.230;2022-10-26T08:54:57;15.00;99.90
8957;DHT22;4513;50.054;8.230;2022-10-26T08:57:24;15.10;99.90
8957;DHT22;4513;50.054;8.230;2022-10-26T08:59:54;15.40;99.90
8957;DHT22;4513;50.054;8.230;2022-10-26T09:02:21;15.50;99.90
8957;DHT22;4513;50.054;8.230;2022-10-26T09:04:49;15.70;99.90
8957;DHT22;4513;50.054;8.230;2022-10-26T09:07:20;15.80;99.90
8957;DHT22;4513;50.054;8.230;2022-10-26T09:09:50;15.80;99.90
8957;DHT22;4513;50.054;8.230;2022-10-26T09:12:21;16.20;99.90
8957;DHT22;4513;50.054;8.230;2022-10-26T09:14:55;16.60;99.90
8957;DHT22;4513;50.054;8.230;2022-10-26T09:17:30;16.80;99.90
8957;DHT22;4513;50.054;8.230;2022-10-26T09:20:01;17.20;99.90
8957;DHT22;4513;50.054;8.230;2022-10-26T09:22:32;17.60;99.90
8957;DHT22;4513;50.054;8.230;2022-10-26T09:25:02;18.50;99.90
8957;DHT22;4513;50.054;8.230;2022-10-26T09:27:33;19.70;99.90
8957;DHT22;4513;50.054;8.230;2022-10-26T09:30:11;20.90;99.90
8957;DHT22;4513;50.054;8.230;2022-10-26T09:32:40;22.00;99.90
8957;DHT22;4513;50.054;8.230;2022-10-26T09:35:11;21.60;99.90
8957;DHT22;4513;50.054;8.230;2022-10-26T09:37:41;21.80;99.90
8957;DHT22;4513;50.054;8.230;2022-10-26T09:40:12;21.30;99.90
8957;DHT22;4513;50.054;8.230;2022-10-26T09:42:42;20.10;99.90
8957;DHT22;4513;50.054;8.230;2022-10-26T09:45:10;20.50;99.90
8957;DHT22;4513;50.054;8.230;2022-10-26T09:47:38;20.90;99.90
8957;DHT22;4513;50.054;8.230;2022-10-26T09:50:13;20.70;99.90
8957;DHT22;4513;50.054;8.230;2022-10-26T09:52:43;20.50;99.90
8957;DHT22;4513;50.054;8.230;2022-10-26T09:55:09;19.00;99.90
8957;DHT22;4513;50.054;8.230;2022-10-26T09:57:37;18.80;99.90
8957;DHT22;4513;50.054;8.230;2022-10-26T10:00:05;18.90;99.90
8957;DHT22;4513;50.054;8.230;2022-10-26T10:02:35;19.40;99.90
8957;DHT22;4513;50.054;8.230;2022-10-26T10:05:15;19.50;99.90
8957;DHT22;4513;50.054;8.230;2022-10-26T10:07:47;19.60;99.90
8957;DHT22;4513;50.054;8.230;2022-10-26T10:10:14;19.90;99.90
8957;DHT22;4513;50.054;8.230;2022-10-26T10:12:41;19.90;99.90
8957;DHT22;4513;50.054;8.230;2022-10-26T10:15:14;20.20;99.90
8957;DHT22;4513;50.054;8.230;2022-10-26T10:17:45;20.00;99.90
8957;DHT22;4513;50.054;8.230;2022-10-26T10:20:16;19.60;99.90
8957;DHT22;4513;50.054;8.230;2022-10-26T10:22:57;19.30;99.90
8957;DHT22;4513;50.054;8.230;2022-10-26T10:25:31;19.00;99.90
8957;DHT22;4513;50.054;8.230;2022-10-26T10:27:58;18.20;99.90
8957;DHT22;4513;50.054;8.230;2022-10-26T10:30:27;18.30;99.90
8957;DHT22;4513;50.054;8.230;2022-10-26T10:33:04;18.50;99.90
8957;DHT22;4513;50.054;8.230;2022-10-26T10:35:31;18.60;99.90
8957;DHT22;4513;50.054;8.230;2022-10-26T10:37:59;18.70;99.90
8957;DHT22;4513;50.054;8.230;2022-10-26T10:40:27;18.70;99.90
8957;DHT22;4513;50.054;8.230;2022-10-26T10:43:02;18.50;99.90
8957;DHT22;4513;50.054;8.230;2022-10-26T10:45:30;18.40;99.90
8957;DHT22;4513;50.054;8.230;2022-10-26T10:47:57;18.40;99.90
8957;DHT22;4513;50.054;8.230;2022-10-26T10:50:25;18.40;99.90
8957;DHT22;4513;50.054;8.230;2022-10-26T10:52:51;18.50;99.90
8957;DHT22;4513;50.054;8.230;2022-10-26T10:55:20;18.70;99.90
8957;DHT22;4513;50.054;8.230;2022-10-26T10:57:51;18.80;99.90
8957;DHT22;4513;50.054;8.230;2022-10-26T11:00:21;18.90;99.90
8957;DHT22;4513;50.054;8.230;2022-10-26T11:02:56;18.90;99.90
8957;DHT22;4513;50.054;8.230;2022-10-26T11:05:32;18.70;99.90
8957;DHT22;4513;50.054;8.230;2022-10-26T11:08:05;18.70;99.90
8957;DHT22;4513;50.054;8.230;2022-10-26T11:10:35;18.70;99.90
8957;DHT22;4513;50.054;8.230;2022-10-26T11:13:05;18.70;99.90
8957;DHT22;4513;50.054;8.230;2022-10-26T11:15:36;18.70;99.90
8957;DHT22;4513;50.054;8.230;2022-10-26T11:18:05;18.60;99.90
8957;DHT22;4513;50.054;8.230;2022-10-26T11:20:35;18.60;99.90
8957;DHT22;4513;50.054;8.230;2022-10-26T11:23:04;18.70;99.90
8957;DHT22;4513;50.054;8.230;2022-10-26T11:25:35;18.80;99.90
8957;DHT22;4513;50.054;8.230;2022-10-26T11:28:10;18.80;99.90
8957;DHT22;4513;50.054;8.230;2022-10-26T11:30:39;18.60;99.90
8957;DHT22;4513;50.054;8.230;2022-10-26T11:33:10;18.50;99.90
8957;DHT22;4513;50.054;8.230;2022-10-26T11:35:39;18.60;99.90
8957;DHT22;4513;50.054;8.230;2022-10-26T11:38:09;18.70;99.90
8957;DHT22;4513;50.054;8.230;2022-10-26T11:40:40;18.70;99.90
8957;DHT22;4513;50.054;8.230;2022-10-26T11:43:11;18.80;99.90
8957;DHT22;4513;50.054;8.230;2022-10-26T11:45:40;18.90;99.90
8957;DHT22;4513;50.054;8.230;2022-10-26T11:48:11;18.90;99.90
8957;DHT22;4513;50.054;8.230;2022-10-26T11:50:39;18.90;99.90
8957;DHT22;4513;50.054;8.230;2022-10-26T11:53:08;18.80;99.90
8957;DHT22;4513;50.054;8.230;2022-10-26T11:55:37;19.00;99.90
8957;DHT22;4513;50.054;8.230;2022-10-26T11:58:07;18.90;99.90
8957;DHT22;4513;50.054;8.230;2022-10-26T12:00:34;18.90;99.90
8957;DHT22;4513;50.054;8.230;2022-10-26T12:03:06;18.90;99.90
8957;DHT22;4513;50.054;8.230;2022-10-26T12:05:35;19.00;99.90
8957;DHT22;4513;50.054;8.230;2022-10-26T12:08:09;19.00;99.90
8957;DHT22;4513;50.054;8.230;2022-10-26T12:10:40;19.10;99.90
8957;DHT22;4513;50.054;8.230;2022-10-26T12:13:10;19.20;99.90
8957;DHT22;4513;50.054;8.230;2022-10-26T12:15:41;19.30;99.90
8957;DHT22;4513;50.054;8.230;2022-10-26T12:18:11;19.40;99.90
8957;DHT22;4513;50.054;8.230;2022-10-26T12:20:50;19.60;99.90
8957;DHT22;4513;50.054;8.230;2022-10-26T12:23:18;19.40;99.90
8957;DHT22;4513;50.054;8.230;2022-10-26T12:25:45;19.60;99.90
8957;DHT22;4513;50.054;8.230;2022-10-26T12:33:51;19.80;99.90
8957;DHT22;4513;50.054;8.230;2022-10-26T12:38:59;20.00;99.90
8957;DHT22;4513;50.054;8.230;2022-10-26T12:41:26;20.00;99.90
8957;DHT22;4513;50.054;8.230;2022-10-26T12:43:54;20.00;99.90
8957;DHT22;4513;50.054;8.230;2022-10-26T12:57:58;19.50;99.90
8957;DHT22;4513;50.054;8.230;2022-10-26T13:00:27;19.70;99.90
8957;DHT22;4513;50.054;8.230;2022-10-26T13:03:00;19.80;99.90
8957;DHT22;4513;50.054;8.230;2022-10-26T13:08:16;19.90;99.90
8957;DHT22;4513;50.054;8.230;2022-10-26T13:10:45;20.00;99.90
8957;DHT22;4513;50.054;8.230;2022-10-26T13:13:27;20.10;99.90
8957;DHT22;4513;50.054;8.230;2022-10-26T13:15:55;19.90;99.90
8957;DHT22;4513;50.054;8.230;2022-10-26T13:18:22;19.60;99.90
8957;DHT22;4513;50.054;8.230;2022-10-26T13:20:51;19.50;99.90
8957;DHT22;4513;50.054;8.230;2022-10-26T13:23:18;19.60;99.90
8957;DHT22;4513;50.054;8.230;2022-10-26T13:26:00;19.80;99.90
8957;DHT22;4513;50.054;8.230;2022-10-26T13:28:32;20.20;99.90
8957;DHT22;4513;50.054;8.230;2022-10-26T13:30:58;20.50;99.90
8957;DHT22;4513;50.054;8.230;2022-10-26T13:33:35;20.60;99.90
8957;DHT22;4513;50.054;8.230;2022-10-26T13:36:05;20.80;99.90
8957;DHT22;4513;50.054;8.230;2022-10-26T13:38:37;20.90;99.90
8957;DHT22;4513;50.054;8.230;2022-10-26T13:41:09;21.00;99.90
8957;DHT22;4513;50.054;8.230;2022-10-26T13:43:40;21.00;99.90
8957;DHT22;4513;50.054;8.230;2022-10-26T13:46:12;21.00;99.90
8957;DHT22;4513;50.054;8.230;2022-10-26T13:48:46;20.90;99.90
8957;DHT22;4513;50.054;8.230;2022-10-26T13:51:16;20.80;99.90
8957;DHT22;4513;50.054;8.230;2022-10-26T13:53:44;20.80;99.90
8957;DHT22;4513;50.054;8.230;2022-10-26T13:56:17;20.70;99.90
8957;DHT22;4513;50.054;8.230;2022-10-26T13:58:47;20.60;99.90
8957;DHT22;4513;50.054;8.230;2022-10-26T14:01:15;20.50;99.90
8957;DHT22;4513;50.054;8.230;2022-10-26T14:03:45;20.30;99.90
8957;DHT22;4513;50.054;8.230;2022-10-26T14:06:14;20.30;99.90
8957;DHT22;4513;50.054;8.230;2022-10-26T14:08:41;20.20;99.90
8957;DHT22;4513;50.054;8.230;2022-10-26T14:11:09;20.20;99.90
8957;DHT22;4513;50.054;8.230;2022-10-26T14:13:37;20.20;99.90
8957;DHT22;4513;50.054;8.230;2022-10-26T14:16:07;20.30;99.90
8957;DHT22;4513;50.054;8.230;2022-10-26T14:18:35;20.20;99.90
8957;DHT22;4513;50.054;8.230;2022-10-26T14:21:02;20.20;99.90
8957;DHT22;4513;50.054;8.230;2022-10-26T14:23:32;20.10;99.90
8957;DHT22;4513;50.054;8.230;2022-10-26T14:25:59;20.10;99.90
8957;DHT22;4513;50.054;8.230;2022-10-26T14:28:26;20.10;99.90
8957;DHT22;4513;50.054;8.230;2022-10-26T14:30:53;20.20;99.90
8957;DHT22;4513;50.054;8.230;2022-10-26T14:33:24;20.20;99.90
8957;DHT22;4513;50.054;8.230;2022-10-26T14:35:52;20.30;99.90
8957;DHT22;4513;50.054;8.230;2022-10-26T14:38:20;20.30;99.90
8957;DHT22;4513;50.054;8.230;2022-10-26T14:40:50;20.40;99.90
8957;DHT22;4513;50.054;8.230;2022-10-26T14:43:19;20.30;99.90
8957;DHT22;4513;50.054;8.230;2022-10-26T14:45:47;20.20;99.90
8957;DHT22;4513;50.054;8.230;2022-10-26T14:48:18;20.20;99.90
8957;DHT22;4513;50.054;8.230;2022-10-26T14:50:57;20.10;99.90
8957;DHT22;4513;50.054;8.230;2022-10-26T14:53:26;20.00;99.90
8957;DHT22;4513;50.054;8.230;2022-10-26T14:55:54;20.00;99.90
8957;DHT22;4513;50.054;8.230;2022-10-26T14:58:21;20.00;99.90
8957;DHT22;4513;50.054;8.230;2022-10-26T15:03:30;19.90;99.90
8957;DHT22;4513;50.054;8.230;2022-10-26T15:05:59;19.90;99.90
8957;DHT22;4513;50.054;8.230;2022-10-26T15:08:45;19.80;99.90
8957;DHT22;4513;50.054;8.230;2022-10-26T15:11:13;19.80;99.90
8957;DHT22;4513;50.054;8.230;2022-10-26T15:13:40;19.80;99.90
8957;DHT22;4513;50.054;8.230;2022-10-26T15:16:08;19.60;99.90
8957;DHT22;4513;50.054;8.230;2022-10-26T15:18:35;19.60;99.90
8957;DHT22;4513;50.054;8.230;2022-10-26T15:21:05;19.50;99.90
8957;DHT22;4513;50.054;8.230;2022-10-26T15:23:32;19.50;99.90
8957;DHT22;4513;50.054;8.230;2022-10-26T15:26:03;19.40;99.90
8957;DHT22;4513;50.054;8.230;2022-10-26T15:28:31;19.30;99.90
8957;DHT22;4513;50.054;8.230;2022-10-26T15:31:01;19.30;99.90
8957;DHT22;4513;50.054;8.230;2022-10-26T15:33:28;19.30;99.90
8957;DHT22;4513;50.054;8.230;2022-10-26T15:36:13;19.20;99.90
8957;DHT22;4513;50.054;8.230;2022-10-26T15:38:40;19.10;99.90
8957;DHT22;4513;50.054;8.230;2022-10-26T15:41:12;19.00;99.90
8957;DHT22;4513;50.054;8.230;2022-10-26T15:43:39;19.00;99.90
8957;DHT22;4513;50.054;8.230;2022-10-26T15:46:06;18.80;99.90
8957;DHT22;4513;50.054;8.230;2022-10-26T15:48:33;18.80;99.90
8957;DHT22;4513;50.054;8.230;2022-10-26T15:51:01;18.70;99.90
8957;DHT22;4513;50.054;8.230;2022-10-26T15:53:32;18.60;99.90
8957;DHT22;4513;50.054;8.230;2022-10-26T15:56:09;18.50;99.90
8957;DHT22;4513;50.054;8.230;2022-10-26T15:58:39;18.30;99.90
8957;DHT22;4513;50.054;8.230;2022-10-26T16:01:08;18.20;99.90
8957;DHT22;4513;50.054;8.230;2022-10-26T16:03:38;18.10;99.90
8957;DHT22;4513;50.054;8.230;2022-10-26T16:06:07;18.10;99.90
8957;DHT22;4513;50.054;8.230;2022-10-26T16:08:36;18.00;99.90
8957;DHT22;4513;50.054;8.230;2022-10-26T16:11:03;17.90;99.90
8957;DHT22;4513;50.054;8.230;2022-10-26T16:13:29;17.90;99.90
8957;DHT22;4513;50.054;8.230;2022-10-26T16:15:56;17.80;99.90
8957;DHT22;4513;50.054;8.230;2022-10-26T16:18:23;17.70;99.90
8957;DHT22;4513;50.054;8.230;2022-10-26T16:20:50;17.50;99.90
8957;DHT22;4513;50.054;8.230;2022-10-26T16:23:16;17.50;99.90
8957;DHT22;4513;50.054;8.230;2022-10-26T16:25:45;17.40;99.90
8957;DHT22;4513;50.054;8.230;2022-10-26T16:28:13;17.30;99.90
8957;DHT22;4513;50.054;8.230;2022-10-26T16:30:40;17.20;99.90
8957;DHT22;4513;50.054;8.230;2022-10-26T16:33:07;17.20;99.90
8957;DHT22;4513;50.054;8.230;2022-10-26T16:35:33;17.00;99.90
8957;DHT22;4513;50.054;8.230;2022-10-26T16:38:00;16.90;99.90